Time;durP1;ratioP1;P1;durP2;ratioP2;P2;SDS_P1;SDS_P2;PMS_P1;PMS_P2;Temp;Humidity;BMP_temperature;BMP_pressure;BME280_temperature;BME280_humidity;BME280_pressure;Samples;Min_cycle;Max_cycle;Signal;HPM_P1;HPM_P2
2021/03/13 00:00:09;;;;;;;20.17;12.79;;;;;;;2.56;77.18;98711.10;354190;113;1960927;-70
2021/03/13 00:01:16;;;;;;;23.03;14.63;;;;;;;2.57;77.05;98718.94;353459;113;1960878;-71
2021/03/13 00:02:22;;;;;;;21.14;13.79;;;;;;;2.59;76.99;98719.59;353233;112;1960754;-70
2021/03/13 00:03:27;;;;;;;21.43;14.09;;;;;;;2.59;77.18;98721.41;354672;113;1960759;-70
2021/03/13 00:04:33;;;;;;;20.91;14.20;;;;;;;2.59;77.22;98710.74;352727;113;1960772;-70
2021/03/13 00:05:41;;;;;;;21.77;14.52;;;;;;;2.61;77.24;98719.40;352984;113;1960764;-70
2021/03/13 00:06:47;;;;;;;22.17;14.34;;;;;;;2.61;77.38;98711.40;354695;113;1960833;-70
2021/03/13 00:07:52;;;;;;;20.83;13.59;;;;;;;2.62;77.53;98716.56;353855;113;1960840;-70
2021/03/13 00:08:59;;;;;;;22.54;15.11;;;;;;;2.65;77.64;98712.72;355615;112;1960784;-70
2021/03/13 00:10:06;;;;;;;24.28;14.07;;;;;;;2.69;77.55;98707.84;320209;113;1960710;-70
2021/03/13 00:11:12;;;;;;;25.07;14.84;;;;;;;2.74;77.06;98710.81;355272;113;1960952;-72
2021/03/13 00:12:19;;;;;;;22.55;13.44;;;;;;;2.75;76.98;98713.30;352587;113;1960899;-70
2021/03/13 00:13:25;;;;;;;21.50;14.61;;;;;;;2.74;77.08;98711.63;314359;113;2881905;-70
2021/03/13 00:14:30;;;;;;;23.08;14.77;;;;;;;2.75;77.26;98715.97;338217;113;1960824;-70
2021/03/13 00:15:37;;;;;;;29.08;17.19;;;;;;;2.81;76.80;98706.42;350867;113;1961854;-70
2021/03/13 00:16:44;;;;;;;28.29;16.89;;;;;;;2.80;76.60;98713.56;311511;113;2731065;-70
2021/03/13 00:17:55;;;;;;;28.26;17.89;;;;;;;2.78;76.68;98704.94;349753;113;1962048;-70
2021/03/13 00:19:00;;;;;;;29.13;17.65;;;;;;;2.78;76.64;98715.61;331335;113;1961893;-70
2021/03/13 00:20:06;;;;;;;30.59;18.87;;;;;;;2.79;76.58;98719.92;350826;109;1960469;-71
2021/03/13 00:21:12;;;;;;;30.16;17.64;;;;;;;2.78;76.64;98704.94;364767;109;1961940;-70
2021/03/13 00:22:17;;;;;;;35.74;21.42;;;;;;;2.78;76.94;98714.75;361313;109;1961916;-70
2021/03/13 00:23:25;;;;;;;32.91;20.32;;;;;;;2.79;76.93;98703.09;360626;108;1961865;-70
2021/03/13 00:24:31;;;;;;;34.90;20.73;;;;;;;2.81;76.88;98703.75;357624;111;1961900;-70
2021/03/13 00:25:37;;;;;;;34.46;20.40;;;;;;;2.84;76.71;98698.88;355385;111;1961993;-71
2021/03/13 00:26:44;;;;;;;32.61;19.29;;;;;;;2.84;76.97;98693.55;319224;108;1960820;-70
2021/03/13 00:27:51;;;;;;;27.27;18.62;;;;;;;2.84;77.13;98696.21;346834;109;1960513;-70
2021/03/13 00:28:56;;;;;;;31.31;18.99;;;;;;;2.86;77.43;98696.88;349609;113;1963910;-71
2021/03/13 00:30:02;;;;;;;30.72;18.99;;;;;;;2.92;77.05;98700.65;345428;115;1962991;-70
2021/03/13 00:31:08;;;;;;;31.57;19.17;;;;;;;2.95;77.01;98699.46;346642;114;1961970;-70
2021/03/13 00:32:14;;;;;;;29.36;20.07;;;;;;;2.98;76.68;98699.92;305576;117;2735926;-71
2021/03/13 00:33:23;;;;;;;33.62;20.49;;;;;;;2.97;76.74;98695.61;338157;114;1963887;-70
2021/03/13 00:34:29;;;;;;;30.40;19.09;;;;;;;2.99;76.59;98700.73;329008;114;2268912;-71
2021/03/13 00:35:34;;;;;;;35.18;22.16;;;;;;;2.97;76.92;98703.61;312178;108;1961669;-70
2021/03/13 00:36:40;;;;;;;32.97;20.83;;;;;;;3.01;76.54;98702.22;349331;115;1962060;-70
2021/03/13 00:37:47;;;;;;;32.37;19.67;;;;;;;3.02;76.72;98698.56;351213;113;1962954;-70
2021/03/13 00:38:53;;;;;;;33.73;20.52;;;;;;;3.04;76.41;98688.54;348390;115;1962044;-70
2021/03/13 00:39:59;;;;;;;32.64;21.31;;;;;;;3.08;76.06;98703.16;335294;115;2963948;-71
2021/03/13 00:41:04;;;;;;;36.42;21.48;;;;;;;3.08;76.29;98692.48;319200;115;1962048;-71
2021/03/13 00:42:10;;;;;;;34.71;20.75;;;;;;;3.09;76.31;98701.31;346478;115;1962025;-71
2021/03/13 00:43:16;;;;;;;36.87;21.37;;;;;;;3.11;76.36;98696.63;349704;115;1961968;-70
2021/03/13 00:44:23;;;;;;;33.87;22.89;;;;;;;3.18;75.96;98707.42;345597;115;1961887;-71
2021/03/13 00:45:29;;;;;;;37.35;23.78;;;;;;;3.17;76.27;98706.57;316624;115;2481005;-70
2021/03/13 00:46:36;;;;;;;47.16;27.73;;;;;;;3.21;76.54;98709.72;345455;115;1962946;-70
2021/03/13 00:47:43;;;;;;;44.15;27.63;;;;;;;3.28;75.57;98706.14;345387;115;1961994;-71
2021/03/13 00:48:49;;;;;;;61.12;30.90;;;;;;;3.30;75.65;98705.95;328855;119;1962965;-72
2021/03/13 00:49:54;;;;;;;67.80;36.53;;;;;;;3.33;75.40;98710.91;338257;117;1961993;-70
2021/03/13 00:51:01;;;;;;;58.62;31.29;;;;;;;3.35;74.83;98708.89;346165;115;1963958;-70
2021/03/13 00:52:06;;;;;;;53.51;28.34;;;;;;;3.34;75.09;98717.92;345508;115;1961994;-72
2021/03/13 00:53:13;;;;;;;47.65;26.55;;;;;;;3.33;74.69;98716.25;346370;115;1961913;-70
2021/03/13 00:54:19;;;;;;;36.63;21.74;;;;;;;3.26;74.97;98718.02;323038;115;1961966;-70
2021/03/13 00:55:25;;;;;;;35.09;21.73;;;;;;;3.25;74.84;98713.66;341900;115;1963921;-71
2021/03/13 00:56:32;;;;;;;34.40;20.92;;;;;;;3.24;74.80;98712.84;345426;115;1963974;-70
2021/03/13 00:57:39;;;;;;;34.55;19.46;;;;;;;3.20;75.36;98718.72;306183;115;2659032;-70
2021/03/13 00:58:44;;;;;;;26.56;17.48;;;;;;;3.20;75.14;98713.38;346997;113;1962088;-70
2021/03/13 00:59:50;;;;;;;23.99;15.42;;;;;;;3.21;75.17;98710.55;345409;115;1961964;-70
2021/03/13 01:00:57;;;;;;;24.59;15.78;;;;;;;3.20;75.18;98711.57;346779;115;1961914;-70
2021/03/13 01:02:04;;;;;;;26.00;16.84;;;;;;;3.19;75.29;98711.73;345723;117;1962052;-71
2021/03/13 01:03:21;;;;;;;23.18;13.85;;;;;;;3.20;75.38;98713.38;339539;117;1962021;-70
2021/03/13 01:04:27;;;;;;;25.26;15.18;;;;;;;3.22;75.03;98714.86;350694;115;1963020;-70
2021/03/13 01:05:34;;;;;;;26.22;16.18;;;;;;;3.21;75.13;98723.89;318553;113;2894003;-70
2021/03/13 01:06:42;;;;;;;32.15;18.23;;;;;;;3.21;74.87;98723.06;352676;113;1961981;-70
2021/03/13 01:07:48;;;;;;;36.41;19.55;;;;;;;3.23;74.52;98729.88;310457;113;2716029;-70
2021/03/13 01:08:53;;;;;;;38.06;20.88;;;;;;;3.22;74.65;98722.86;329602;113;1963947;-70
2021/03/13 01:10:03;;;;;;;35.16;22.30;;;;;;;3.15;75.27;98727.30;353877;112;1962977;-70
2021/03/13 01:11:09;;;;;;;30.03;17.04;;;;;;;3.12;75.34;98714.28;346779;117;1961995;-70
2021/03/13 01:12:17;;;;;;;28.80;17.79;;;;;;;3.09;75.53;98725.33;355524;111;1961905;-70
2021/03/13 01:13:24;;;;;;;27.89;16.99;;;;;;;3.09;75.73;98725.33;325188;114;1963083;-70
2021/03/13 01:14:53;;;;;;;28.08;16.49;;;;;;;3.10;75.67;98729.67;345228;113;1960847;-72
2021/03/13 01:15:58;;;;;;;27.50;16.87;;;;;;;3.11;75.68;98728.66;336879;119;1962976;-72
2021/03/13 01:17:07;;;;;;;24.29;15.50;;;;;;;3.07;75.62;98728.20;331108;119;1962080;-72
2021/03/13 01:18:13;;;;;;;23.36;14.83;;;;;;;3.08;76.07;98723.68;316387;121;2262364;-72
2021/03/13 01:19:18;;;;;;;19.93;13.56;;;;;;;3.04;76.45;98733.89;315340;119;1961937;-72
2021/03/13 01:20:26;;;;;;;22.37;15.05;;;;;;;3.07;76.37;98733.53;332673;121;1964080;-72
2021/03/13 01:21:32;;;;;;;22.90;14.44;;;;;;;3.09;76.37;98736.00;330051;122;1962178;-72
2021/03/13 01:22:39;;;;;;;20.88;14.56;;;;;;;3.08;76.37;98735.17;297633;124;2389272;-71
2021/03/13 01:23:45;;;;;;;20.03;13.28;;;;;;;3.13;76.13;98741.83;331787;119;1960825;-71
2021/03/13 01:24:53;;;;;;;24.08;13.92;;;;;;;3.19;75.40;98744.58;297385;118;2644934;-71
2021/03/13 01:25:58;;;;;;;22.08;14.83;;;;;;;3.18;75.72;98737.60;328993;121;1961917;-71
2021/03/13 01:27:04;;;;;;;23.24;15.51;;;;;;;3.17;76.14;98741.26;332335;121;1960861;-71
2021/03/13 01:28:09;;;;;;;21.32;14.29;;;;;;;3.20;75.85;98748.93;333485;121;1962000;-71
2021/03/13 01:29:16;;;;;;;20.94;14.32;;;;;;;3.21;75.87;98753.24;328875;120;1962019;-71
2021/03/13 01:30:24;;;;;;;22.11;14.58;;;;;;;3.20;76.18;98745.41;332092;113;1962006;-71
2021/03/13 01:31:30;;;;;;;20.87;13.99;;;;;;;3.25;75.75;98751.86;351917;112;1961919;-71
2021/03/13 01:32:36;;;;;;;23.38;15.60;;;;;;;3.26;75.66;98764.21;355170;112;1961913;-70
2021/03/13 01:33:42;;;;;;;22.72;13.27;;;;;;;3.29;75.52;98755.83;325060;114;2421917;-70
2021/03/13 01:34:48;;;;;;;21.21;14.34;;;;;;;3.34;74.99;98751.80;350374;114;1961922;-70
2021/03/13 01:35:55;;;;;;;18.79;13.60;;;;;;;3.29;75.69;98761.17;353169;112;1961977;-71
2021/03/13 01:37:00;;;;;;;19.92;13.34;;;;;;;3.28;75.70;98761.34;347583;115;1962022;-71
2021/03/13 01:38:07;;;;;;;20.91;13.78;;;;;;;3.29;75.90;98763.02;292618;111;2154343;-72
2021/03/13 01:39:13;;;;;;;21.95;15.33;;;;;;;3.34;75.08;98755.30;338597;112;1962115;-72
2021/03/13 01:40:20;;;;;;;22.38;15.94;;;;;;;3.32;75.45;98759.98;357822;113;1960951;-70
2021/03/13 01:41:27;;;;;;;24.44;15.89;;;;;;;3.32;75.53;98756.48;319267;111;2601917;-71
2021/03/13 01:42:34;;;;;;;27.15;17.04;;;;;;;3.35;75.18;98759.61;325515;113;1961820;-71
2021/03/13 01:43:42;;;;;;;29.39;18.18;;;;;;;3.35;75.00;98761.46;304605;115;2772093;-71
2021/03/13 01:44:48;;;;;;;28.13;18.70;;;;;;;3.37;74.74;98762.11;339374;115;1961077;-71
2021/03/13 01:45:53;;;;;;;29.99;18.32;;;;;;;3.36;74.67;98771.11;335641;116;1961951;-72
2021/03/13 01:46:59;;;;;;;26.59;15.72;;;;;;;3.33;74.68;98772.30;351880;112;1960717;-71
2021/03/13 01:48:06;;;;;;;28.68;17.84;;;;;;;3.33;74.43;98771.48;349454;115;1960753;-71
2021/03/13 01:49:16;;;;;;;29.71;18.18;;;;;;;3.26;75.16;98768.72;285478;115;2212469;-71
2021/03/13 01:50:22;;;;;;;26.43;16.07;;;;;;;3.27;74.87;98765.86;330361;113;2261932;-72
2021/03/13 01:51:28;;;;;;;29.71;16.84;;;;;;;3.29;74.72;98765.69;335222;114;1962024;-71
2021/03/13 01:52:36;;;;;;;26.58;16.77;;;;;;;3.27;75.01;98765.03;342883;115;1962011;-71
2021/03/13 01:53:43;;;;;;;25.24;16.06;;;;;;;3.29;74.87;98771.84;302553;115;2037668;-71
2021/03/13 01:54:49;;;;;;;26.46;14.87;;;;;;;3.28;75.06;98764.86;350917;115;1965007;-71
2021/03/13 01:55:55;;;;;;;24.27;16.46;;;;;;;3.28;75.07;98774.69;349289;113;1961936;-72
2021/03/13 01:57:03;;;;;;;21.37;15.59;;;;;;;3.25;75.02;98775.88;315551;115;2467982;-70
2021/03/13 01:58:09;;;;;;;22.07;14.56;;;;;;;3.20;75.30;98786.29;346035;115;1961984;-71
2021/03/13 01:59:19;;;;;;;21.42;14.11;;;;;;;3.19;75.43;98773.94;341025;119;1961913;-71
2021/03/13 02:00:26;;;;;;;21.23;13.68;;;;;;;3.19;75.42;98789.13;346669;115;1960977;-72
2021/03/13 02:01:33;;;;;;;24.49;14.88;;;;;;;3.22;75.22;98786.91;349900;115;1960948;-71
2021/03/13 02:02:41;;;;;;;19.25;13.50;;;;;;;3.19;75.41;98786.46;348973;115;1961978;-71
2021/03/13 02:03:48;;;;;;;16.81;12.32;;;;;;;3.13;75.65;98790.68;349059;115;1961931;-71
2021/03/13 02:04:54;;;;;;;22.87;14.31;;;;;;;3.16;75.62;98790.31;348640;115;1960830;-71
2021/03/13 02:06:00;;;;;;;20.94;13.19;;;;;;;3.21;75.31;98797.79;351171;113;1961885;-70
2021/03/13 02:07:43;;;;;;;20.82;13.23;;;;;;;3.19;75.40;98797.13;325170;115;2377069;-71
2021/03/13 02:09:11;;;;;;;20.15;13.03;;;;;;;3.18;75.56;98796.31;346953;115;1962080;-72
2021/03/13 02:10:30;;;;;;;21.35;13.87;;;;;;;3.15;75.65;98801.16;326181;114;1969938;-71
2021/03/13 02:11:42;;;;;;;19.34;13.33;;;;;;;3.17;75.75;98797.30;344727;114;1961978;-71
2021/03/13 02:13:06;;;;;;;20.24;12.78;;;;;;;3.18;75.96;98804.31;344743;115;1961063;-71
2021/03/13 02:14:16;;;;;;;20.51;12.11;;;;;;;3.13;75.99;98792.52;328344;113;1963065;-71
2021/03/13 02:15:30;;;;;;;19.94;12.39;;;;;;;3.23;75.72;98809.12;349565;115;1960932;-71
2021/03/13 02:16:49;;;;;;;19.23;13.92;;;;;;;3.27;75.55;98807.73;322169;115;1961963;-71
2021/03/13 02:18:20;;;;;;;20.47;12.96;;;;;;;3.26;75.87;98804.24;346882;116;1961969;-71
2021/03/13 02:20:03;;;;;;;20.51;13.76;;;;;;;3.28;76.00;98806.72;297134;119;2705999;-72
2021/03/13 02:21:34;;;;;;;19.87;13.13;;;;;;;3.32;76.04;98815.21;346824;116;1961963;-71
2021/03/13 02:22:44;;;;;;;20.97;12.72;;;;;;;3.31;76.13;98814.39;314806;117;1962068;-71
2021/03/13 02:24:17;;;;;;;18.26;12.89;;;;;;;3.33;76.02;98812.34;350834;115;1961902;-71
2021/03/13 02:25:35;;;;;;;20.93;13.85;;;;;;;3.34;76.19;98816.69;349677;115;1962976;-71
2021/03/13 02:26:46;;;;;;;18.96;12.48;;;;;;;3.36;76.18;98821.83;342327;117;1961951;-71
2021/03/13 02:28:18;;;;;;;18.16;12.36;;;;;;;3.39;75.73;98826.84;301439;115;2001468;-70
2021/03/13 02:29:28;;;;;;;19.35;13.66;;;;;;;3.41;75.64;98824.80;346634;115;1963026;-71
2021/03/13 02:30:38;;;;;;;18.31;13.19;;;;;;;3.39;75.64;98816.98;292820;115;2173161;-71
2021/03/13 02:31:49;;;;;;;18.64;12.76;;;;;;;3.40;75.37;98823.14;325205;113;1962102;-72
2021/03/13 02:33:22;;;;;;;18.74;12.96;;;;;;;3.38;75.77;98828.65;343721;113;2901970;-71
2021/03/13 02:34:33;;;;;;;22.05;13.03;;;;;;;3.39;75.60;98829.50;350632;113;1961964;-71
2021/03/13 02:35:46;;;;;;;21.43;12.83;;;;;;;3.39;75.38;98822.32;343809;115;1961130;-71
2021/03/13 02:36:53;;;;;;;18.63;11.84;;;;;;;3.37;75.89;98827.00;342011;117;1961900;-71
2021/03/13 02:38:06;;;;;;;19.14;12.46;;;;;;;3.38;75.78;98827.83;348867;115;1962042;-71
2021/03/13 02:39:16;;;;;;;19.71;13.37;;;;;;;3.37;76.24;98824.33;349628;115;1962060;-72
2021/03/13 02:40:28;;;;;;;20.95;13.47;;;;;;;3.30;76.41;98823.39;332439;112;2246887;-71
2021/03/13 02:41:44;;;;;;;21.49;14.41;;;;;;;3.37;76.41;98816.33;340844;117;1964033;-70
2021/03/13 02:42:53;;;;;;;20.01;12.90;;;;;;;3.38;76.41;98822.48;332884;117;2961925;-72
2021/03/13 02:44:02;;;;;;;19.96;14.22;;;;;;;3.40;76.21;98820.47;352467;113;1960963;-72
2021/03/13 02:45:11;;;;;;;21.48;13.77;;;;;;;3.41;76.23;98819.45;351003;115;1962020;-71
2021/03/13 02:46:20;;;;;;;21.16;13.35;;;;;;;3.42;76.44;98819.28;347091;114;1962026;-70
2021/03/13 02:47:26;;;;;;;19.76;12.52;;;;;;;3.43;76.12;98812.92;317562;115;1964935;-71
2021/03/13 02:48:36;;;;;;;19.94;13.24;;;;;;;3.47;75.66;98813.41;343478;117;1962041;-70
2021/03/13 02:49:45;;;;;;;21.74;13.96;;;;;;;3.46;76.11;98820.56;348737;115;1961927;-71
2021/03/13 02:50:53;;;;;;;20.66;13.68;;;;;;;3.45;76.32;98818.09;349756;115;1962045;-71
2021/03/13 02:52:02;;;;;;;20.51;12.79;;;;;;;3.49;75.95;98822.05;327751;114;1961956;-71
2021/03/13 02:53:09;;;;;;;21.18;13.77;;;;;;;3.48;76.38;98815.06;341726;116;1964944;-71
2021/03/13 02:54:16;;;;;;;21.18;14.49;;;;;;;3.47;76.45;98816.91;336843;119;1961915;-71
2021/03/13 02:55:24;;;;;;;19.77;13.93;;;;;;;3.46;76.66;98812.55;345705;116;1961966;-72
2021/03/13 02:56:33;;;;;;;21.19;13.78;;;;;;;3.46;76.81;98809.89;318570;112;1962002;-71
2021/03/13 02:57:43;;;;;;;21.08;13.84;;;;;;;3.49;76.88;98808.70;322658;114;2494963;-71
2021/03/13 02:58:53;;;;;;;20.78;14.15;;;;;;;3.49;76.92;98804.21;307036;114;2675996;-71
2021/03/13 02:59:59;;;;;;;21.39;13.63;;;;;;;3.50;76.89;98810.38;344030;116;1962006;-70
2021/03/13 03:01:06;;;;;;;21.66;14.23;;;;;;;3.51;76.77;98812.84;285023;114;2238924;-72
2021/03/13 03:02:14;;;;;;;23.02;15.03;;;;;;;3.55;76.53;98801.80;352538;114;1961934;-72
2021/03/13 03:03:23;;;;;;;23.14;14.59;;;;;;;3.51;76.31;98804.83;289477;116;2124285;-71
2021/03/13 03:04:43;;;;;;;;;;;;;;;3.50;76.63;98800.52;347549;112;1960669;-71
2021/03/13 03:05:51;;;;;;;22.19;13.81;;;;;;;3.51;76.75;98802.16;342080;116;1960987;-70
2021/03/13 03:06:58;;;;;;;20.36;14.02;;;;;;;3.51;76.85;98801.34;348079;115;1962017;-71
2021/03/13 03:08:07;;;;;;;21.83;14.54;;;;;;;3.55;76.67;98804.47;351417;113;1961941;-71
2021/03/13 03:09:15;;;;;;;21.51;14.24;;;;;;;3.56;76.62;98806.97;350195;114;1961967;-71
2021/03/13 03:10:26;;;;;;;23.54;14.75;;;;;;;3.62;75.94;98806.23;350114;113;1961971;-71
2021/03/13 03:11:32;;;;;;;21.21;14.71;;;;;;;3.64;75.82;98814.89;352702;113;1962140;-72
2021/03/13 03:12:41;;;;;;;21.84;14.69;;;;;;;3.65;75.65;98813.91;350308;113;1960802;-70
2021/03/13 03:13:49;;;;;;;20.52;13.99;;;;;;;3.66;75.34;98812.05;360223;111;1962001;-70
2021/03/13 03:14:59;;;;;;;23.81;13.83;;;;;;;3.64;75.44;98816.74;306473;111;2061919;-71
2021/03/13 03:16:06;;;;;;;22.78;15.04;;;;;;;3.66;75.41;98814.73;294155;110;2203808;-70
2021/03/13 03:17:12;;;;;;;23.21;14.53;;;;;;;3.63;75.85;98812.42;359791;111;1961987;-70
2021/03/13 03:18:25;;;;;;;25.19;14.27;;;;;;;3.62;75.82;98808.08;312023;113;2008111;-70
2021/03/13 03:19:31;;;;;;;21.93;15.33;;;;;;;3.63;75.54;98813.25;357919;110;1962037;-71
2021/03/13 03:20:42;;;;;;;22.84;14.29;;;;;;;3.63;75.70;98801.74;356049;113;1962908;-70
2021/03/13 03:21:47;;;;;;;22.78;14.16;;;;;;;3.63;75.61;98805.23;356264;113;1961937;-71
2021/03/13 03:22:55;;;;;;;22.96;15.61;;;;;;;3.62;75.36;98802.73;357288;113;1964910;-71
2021/03/13 03:24:01;;;;;;;25.04;14.71;;;;;;;3.63;75.31;98807.08;340770;112;1963051;-71
2021/03/13 03:25:08;;;;;;;25.96;15.56;;;;;;;3.62;75.08;98803.56;353034;112;1962267;-71
2021/03/13 03:26:15;;;;;;;23.26;14.44;;;;;;;3.57;75.53;98808.61;324108;110;1962052;-71
2021/03/13 03:27:20;;;;;;;22.93;14.69;;;;;;;3.59;75.19;98808.45;344957;113;1963922;-71
2021/03/13 03:28:27;;;;;;;25.17;15.81;;;;;;;3.56;75.61;98803.47;360522;111;1961979;-71
2021/03/13 03:29:35;;;;;;;24.44;15.91;;;;;;;3.52;75.92;98811.85;331714;111;2457014;-70
2021/03/13 03:30:42;;;;;;;22.54;14.46;;;;;;;3.49;76.03;98814.03;356800;113;1963039;-71
2021/03/13 03:31:48;;;;;;;19.60;13.14;;;;;;;3.49;75.81;98808.70;358555;111;1962002;-70
2021/03/13 03:32:55;;;;;;;24.56;13.99;;;;;;;3.47;76.03;98808.07;319514;110;2640909;-71
2021/03/13 03:34:01;;;;;;;20.66;12.86;;;;;;;3.38;76.40;98830.50;358119;111;1963963;-71
2021/03/13 03:35:07;;;;;;;22.26;13.57;;;;;;;3.37;76.30;98832.34;360766;112;1961978;-71
2021/03/13 03:36:14;;;;;;;23.73;14.82;;;;;;;3.36;76.19;98832.51;363488;111;1962000;-70
2021/03/13 03:37:20;;;;;;;21.47;13.83;;;;;;;3.26;76.75;98833.60;336814;111;2313314;-71
2021/03/13 03:38:26;;;;;;;23.78;14.58;;;;;;;3.24;77.08;98834.79;345582;111;1962109;-70
2021/03/13 03:39:31;;;;;;;18.36;12.51;;;;;;;3.25;76.74;98841.77;359871;111;1963005;-70
2021/03/13 03:40:41;;;;;;;21.29;13.76;;;;;;;3.19;77.19;98834.50;360126;110;1961903;-70
2021/03/13 03:41:50;;;;;;;21.12;13.77;;;;;;;3.22;76.89;98839.47;355324;112;1963919;-71
2021/03/13 03:43:11;;;;;;;21.14;13.63;;;;;;;3.21;76.94;98830.64;355748;111;1962099;-71
2021/03/13 03:44:27;;;;;;;21.83;14.07;;;;;;;3.23;77.01;98841.15;356467;110;1961707;-71
2021/03/13 03:45:37;;;;;;;23.61;14.43;;;;;;;3.27;76.64;98835.25;358571;110;1969920;-71
2021/03/13 03:46:44;;;;;;;22.39;14.59;;;;;;;3.27;76.79;98845.92;358891;111;1961904;-71
2021/03/13 03:47:52;;;;;;;20.28;12.90;;;;;;;3.27;76.96;98850.44;358325;110;1962010;-71
2021/03/13 03:48:57;;;;;;;21.13;13.23;;;;;;;3.24;77.25;98848.95;356666;111;1962958;-71
2021/03/13 03:50:06;;;;;;;24.19;14.28;;;;;;;3.27;76.95;98845.10;337304;110;1964050;-71
2021/03/13 03:51:22;;;;;;;24.49;15.32;;;;;;;3.30;76.70;98844.73;339108;109;2278999;-71
2021/03/13 03:52:32;;;;;;;24.49;14.75;;;;;;;3.30;76.75;98834.06;314566;113;1961984;-71
2021/03/13 03:53:43;;;;;;;24.74;14.53;;;;;;;3.29;76.88;98843.91;352729;112;1965026;-71
2021/03/13 03:54:51;;;;;;;23.56;15.14;;;;;;;3.28;77.17;98849.42;309608;110;2773037;-70
2021/03/13 03:55:58;;;;;;;25.74;15.38;;;;;;;3.27;77.40;98853.11;358475;111;1962003;-70
2021/03/13 03:57:07;;;;;;;23.21;14.82;;;;;;;3.32;77.15;98836.56;359186;110;1963964;-71
2021/03/13 03:58:17;;;;;;;25.86;15.57;;;;;;;3.31;77.25;98841.08;359240;111;1961964;-71
2021/03/13 03:59:24;;;;;;;24.07;14.94;;;;;;;3.34;77.27;98837.22;361797;111;1961912;-71
2021/03/13 04:00:44;;;;;;;25.19;15.66;;;;;;;3.33;77.42;98841.70;361004;111;1961915;-71
2021/03/13 04:01:52;;;;;;;23.00;13.99;;;;;;;3.35;77.34;98837.02;345768;112;1961975;-69
2021/03/13 04:03:01;;;;;;;22.33;13.96;;;;;;;3.37;77.40;98839.53;311145;112;2780998;-70
2021/03/13 04:04:09;;;;;;;22.33;13.05;;;;;;;3.41;76.91;98852.31;354362;112;1961049;-70
2021/03/13 04:05:21;;;;;;;25.16;15.41;;;;;;;3.40;76.46;98853.34;329651;113;1961910;-69
2021/03/13 04:06:28;;;;;;;24.33;14.82;;;;;;;3.34;77.04;98845.23;362731;110;1964014;-69
2021/03/13 04:07:36;;;;;;;25.13;14.53;;;;;;;3.34;77.08;98848.72;321281;112;2604003;-70
2021/03/13 04:08:43;;;;;;;22.50;13.89;;;;;;;3.34;77.27;98853.23;360001;112;1962913;-69
2021/03/13 04:09:51;;;;;;;25.18;14.57;;;;;;;3.34;77.30;98866.58;314771;112;2026391;-69
2021/03/13 04:11:01;;;;;;;20.91;12.97;;;;;;;3.36;77.37;98864.55;349244;112;2954041;-70
2021/03/13 04:12:08;;;;;;;22.65;15.12;;;;;;;3.40;76.88;98866.68;356142;112;1961981;-70
2021/03/13 04:13:18;;;;;;;22.76;13.91;;;;;;;3.42;76.63;98871.86;302436;112;2127354;-69
2021/03/13 04:14:25;;;;;;;24.71;14.48;;;;;;;3.43;77.09;98868.98;289678;112;2235150;-69
2021/03/13 04:15:30;;;;;;;22.84;14.24;;;;;;;3.46;76.64;98867.80;357025;112;1961991;-69
2021/03/13 04:16:37;;;;;;;22.22;13.01;;;;;;;3.47;76.60;98870.30;355799;112;1962976;-69
2021/03/13 04:17:43;;;;;;;20.11;12.83;;;;;;;3.49;76.51;98875.45;358052;112;1961953;-70
2021/03/13 04:18:48;;;;;;;21.06;12.63;;;;;;;3.41;76.41;98854.16;336707;112;2309937;-69
2021/03/13 04:19:55;;;;;;;21.31;13.17;;;;;;;3.48;76.52;98861.27;330329;112;1962035;-70
2021/03/13 04:21:02;;;;;;;20.48;12.86;;;;;;;3.43;76.76;98866.31;348221;114;1963968;-69
2021/03/13 04:22:07;;;;;;;22.46;12.77;;;;;;;3.41;76.74;98868.33;356764;112;1961951;-70
2021/03/13 04:23:16;;;;;;;21.64;13.78;;;;;;;3.47;76.59;98869.48;309224;112;2832966;-71
2021/03/13 04:24:23;;;;;;;21.12;13.13;;;;;;;3.47;76.63;98864.96;356079;112;1962980;-70
2021/03/13 04:25:31;;;;;;;20.48;12.53;;;;;;;3.47;76.47;98859.63;335942;110;2344932;-69
2021/03/13 04:26:40;;;;;;;22.18;13.42;;;;;;;3.45;76.58;98866.16;322761;112;2574001;-70
2021/03/13 04:27:45;;;;;;;23.20;13.49;;;;;;;3.40;76.94;98863.19;359402;112;1961950;-69
2021/03/13 04:28:51;;;;;;;25.57;14.37;;;;;;;3.37;77.00;98858.22;358116;112;1961811;-69
2021/03/13 04:29:58;;;;;;;25.53;14.93;;;;;;;3.33;77.60;98865.73;355359;112;1961976;-71
2021/03/13 04:31:05;;;;;;;23.36;12.91;;;;;;;3.33;77.40;98867.58;337376;112;2271883;-69
2021/03/13 04:32:16;;;;;;;22.28;13.42;;;;;;;3.25;77.57;98877.30;358281;112;1961976;-70
2021/03/13 04:33:23;;;;;;;22.26;13.79;;;;;;;3.24;78.06;98866.81;355940;112;1961994;-68
2021/03/13 04:34:30;;;;;;;18.24;12.29;;;;;;;3.25;78.08;98866.63;338889;112;2248964;-70
2021/03/13 04:35:36;;;;;;;22.14;12.73;;;;;;;3.30;77.72;98874.92;351656;107;1960828;-69
2021/03/13 04:36:44;;;;;;;19.01;12.61;;;;;;;3.34;77.73;98875.42;321307;117;2326970;-69
2021/03/13 04:37:50;;;;;;;20.36;12.78;;;;;;;3.33;77.91;98883.59;333976;118;1962044;-69
2021/03/13 04:38:58;;;;;;;20.13;12.75;;;;;;;3.27;77.95;98885.97;332103;121;1961969;-69
2021/03/13 04:40:08;;;;;;;21.12;12.08;;;;;;;3.36;77.88;98880.56;319424;114;1961974;-69
2021/03/13 04:41:14;;;;;;;19.59;12.33;;;;;;;3.39;77.78;98878.38;337104;112;1964010;-69
2021/03/13 04:42:19;;;;;;;21.77;12.99;;;;;;;3.39;77.76;98875.71;354308;114;1962051;-70
2021/03/13 04:43:27;;;;;;;20.22;12.06;;;;;;;3.36;77.77;98872.55;352822;112;1962069;-70
2021/03/13 04:44:33;;;;;;;20.66;13.13;;;;;;;3.41;77.88;98878.19;302880;114;2852098;-69
2021/03/13 04:45:41;;;;;;;24.36;13.03;;;;;;;3.42;77.78;98879.86;343012;114;1963005;-69
2021/03/13 04:46:50;;;;;;;21.87;13.23;;;;;;;3.47;77.49;98888.17;329722;114;2265940;-69
2021/03/13 04:47:56;;;;;;;21.98;12.07;;;;;;;3.47;77.48;98882.83;348605;114;1964918;-69
2021/03/13 04:49:05;;;;;;;19.12;12.96;;;;;;;3.50;77.44;98877.95;347729;114;1963841;-69
2021/03/13 04:50:13;;;;;;;20.56;12.86;;;;;;;3.50;77.56;98882.47;347989;114;1962017;-69
2021/03/13 04:51:20;;;;;;;20.73;13.63;;;;;;;3.54;77.49;98883.75;347486;114;1963862;-69
2021/03/13 04:52:25;;;;;;;23.68;13.97;;;;;;;3.63;76.79;98882.69;351848;114;1961917;-69
2021/03/13 04:53:31;;;;;;;22.68;13.16;;;;;;;3.63;76.92;98895.21;348372;114;1962064;-70
2021/03/13 04:54:37;;;;;;;22.94;12.91;;;;;;;3.67;76.71;98894.65;347862;114;1962015;-70
2021/03/13 04:55:43;;;;;;;21.17;12.53;;;;;;;3.69;76.43;98889.96;309040;114;2696983;-69
2021/03/13 04:56:52;;;;;;;20.00;11.98;;;;;;;3.70;76.47;98898.80;345483;116;1963041;-69
2021/03/13 04:57:58;;;;;;;18.83;11.72;;;;;;;3.71;76.31;98901.30;321488;114;2418904;-70
2021/03/13 04:59:03;;;;;;;19.23;11.91;;;;;;;3.65;76.58;98894.02;327383;114;1962917;-69
2021/03/13 05:00:15;;;;;;;22.21;11.67;;;;;;;3.67;76.86;98891.98;350573;114;1961947;-69
2021/03/13 05:01:20;;;;;;;18.43;12.10;;;;;;;3.69;76.68;98897.98;349829;114;1962009;-69
2021/03/13 05:02:25;;;;;;;20.37;12.89;;;;;;;3.71;76.70;98897.81;348272;114;1961993;-70
2021/03/13 05:03:31;;;;;;;19.93;12.83;;;;;;;3.70;76.47;98896.95;348918;114;1961891;-69
2021/03/13 05:04:37;;;;;;;21.82;12.91;;;;;;;3.72;76.30;98902.13;348299;114;1964914;-70
2021/03/13 05:05:43;;;;;;;23.39;14.07;;;;;;;3.68;76.48;98899.00;302305;114;2816956;-70
2021/03/13 05:06:48;;;;;;;19.37;13.28;;;;;;;3.71;76.42;98911.98;350299;114;1962025;-69
2021/03/13 05:07:54;;;;;;;23.12;13.21;;;;;;;3.73;76.50;98907.30;335494;121;1961946;-70
2021/03/13 05:08:59;;;;;;;22.96;13.18;;;;;;;3.79;76.34;98902.25;346604;116;1961988;-69
2021/03/13 05:10:07;;;;;;;22.21;13.44;;;;;;;3.82;76.32;98907.23;349790;114;1962001;-70
2021/03/13 05:11:13;;;;;;;22.92;13.24;;;;;;;3.85;76.08;98901.52;321462;114;2439002;-69